createdAt,value
2018-08-22T00:01:39.581Z,3.40
2018-08-22T00:05:33.518Z,3.63
2018-08-22T00:09:27.457Z,3.10
2018-08-22T00:13:21.409Z,3.20
2018-08-22T00:17:15.447Z,3.10
2018-08-22T00:21:09.475Z,3.30
2018-08-22T00:25:03.417Z,4.20
2018-08-22T00:28:57.847Z,3.52
2018-08-22T00:32:51.914Z,3.13
2018-08-22T00:36:46.142Z,3.70
2018-08-22T00:40:40.123Z,3.10
2018-08-22T00:44:34.087Z,2.97
2018-08-22T00:48:28.035Z,3.60
2018-08-22T00:52:22.023Z,2.97
2018-08-22T00:56:16.032Z,3.03
2018-08-22T01:00:10.023Z,3.37
2018-08-22T01:04:03.992Z,2.63
2018-08-22T01:07:58.126Z,3.00
2018-08-22T01:11:52.090Z,2.87
2018-08-22T01:15:46.126Z,2.87
2018-08-22T01:19:40.074Z,2.50
2018-08-22T01:23:34.050Z,2.77
2018-08-22T01:27:27.952Z,2.50
2018-08-22T01:31:21.963Z,2.60
2018-08-22T01:35:15.903Z,2.63
2018-08-22T01:39:10.159Z,2.80
2018-08-22T01:43:04.098Z,2.43
2018-08-22T01:46:58.058Z,2.60
2018-08-22T01:50:52.027Z,2.67
2018-08-22T01:54:48.154Z,2.67
2018-08-22T01:58:42.182Z,2.70
2018-08-22T02:02:36.126Z,2.80
2018-08-22T02:06:30.123Z,2.87
2018-08-22T02:10:24.114Z,2.83
2018-08-22T02:14:18.093Z,2.77
2018-08-22T02:18:12.121Z,3.10
2018-08-22T02:22:06.111Z,2.80
2018-08-22T02:26:00.183Z,3.07
2018-08-22T02:29:54.193Z,3.03
2018-08-22T02:33:48.459Z,3.00
2018-08-22T02:37:42.483Z,2.57
2018-08-22T02:41:36.459Z,2.70
2018-08-22T02:45:30.466Z,2.70
2018-08-22T02:49:24.656Z,2.27
2018-08-22T02:53:18.626Z,2.67
2018-08-22T02:57:12.648Z,2.62
2018-08-22T03:01:06.653Z,2.70
2018-08-22T03:05:00.649Z,2.60
2018-08-22T03:08:54.765Z,2.80
2018-08-22T03:12:49.009Z,2.47
2018-08-22T03:16:42.999Z,2.70
2018-08-22T03:20:36.940Z,2.80
2018-08-22T03:24:30.932Z,2.70
2018-08-22T03:28:24.975Z,2.83
2018-08-22T03:32:18.910Z,2.73
2018-08-22T03:36:13.023Z,2.85
2018-08-22T03:40:07.347Z,3.10
2018-08-22T03:44:01.685Z,2.97
2018-08-22T03:47:56.146Z,3.07
2018-08-22T03:51:50.157Z,3.07
2018-08-22T03:55:44.125Z,3.40
2018-08-22T03:59:38.842Z,3.43
2018-08-22T04:03:33.351Z,3.13
2018-08-22T04:07:27.359Z,3.40
2018-08-22T04:11:21.390Z,3.60
2018-08-22T04:15:15.403Z,3.47
2018-08-22T04:19:09.397Z,3.13
2018-08-22T04:23:05.067Z,3.72
2018-08-22T04:26:59.154Z,3.57
2018-08-22T04:30:53.341Z,3.57
2018-08-22T04:34:47.498Z,3.53
2018-08-22T04:38:41.425Z,3.67
2018-08-22T04:42:35.425Z,3.83
2018-08-22T04:46:29.427Z,4.35
2018-08-22T04:50:23.496Z,3.90
2018-08-22T04:54:17.457Z,3.73
2018-08-22T04:58:11.657Z,4.67
2018-08-22T05:02:05.642Z,4.20
2018-08-22T05:05:59.720Z,4.20
2018-08-22T05:09:53.770Z,4.23
2018-08-22T05:13:48.618Z,3.97
2018-08-22T05:17:42.660Z,4.43
2018-08-22T05:21:36.948Z,4.27
2018-08-22T05:25:31.010Z,4.70
2018-08-22T05:29:25.060Z,4.10
2018-08-22T05:33:20.897Z,4.37
2018-08-22T05:37:14.918Z,4.70
2018-08-22T05:41:09.018Z,4.17
2018-08-22T05:45:03.115Z,4.50
2018-08-22T05:48:57.234Z,5.03
2018-08-22T05:52:51.337Z,4.67
2018-08-22T05:56:45.380Z,4.73
2018-08-22T06:00:39.563Z,4.33
2018-08-22T06:04:34.278Z,4.70
2018-08-22T06:08:28.223Z,4.83
2018-08-22T06:12:22.180Z,4.23
2018-08-22T06:16:16.229Z,4.70
2018-08-22T06:20:10.353Z,7.03
2018-08-22T06:24:04.545Z,4.23
2018-08-22T06:27:59.575Z,4.30
2018-08-22T06:31:53.721Z,4.17
2018-08-22T06:35:47.771Z,4.10
2018-08-22T06:39:41.859Z,3.77
2018-08-22T06:43:35.870Z,4.53
2018-08-22T06:47:29.966Z,3.80
2018-08-22T06:51:24.168Z,3.90
2018-08-22T06:55:19.428Z,3.93
2018-08-22T06:59:13.595Z,3.63
2018-08-22T07:03:07.699Z,3.10
2018-08-22T07:07:01.728Z,3.33
2018-08-22T07:10:55.736Z,3.30
2018-08-22T07:14:49.869Z,3.33
2018-08-22T07:18:44.112Z,3.57
2018-08-22T07:22:38.292Z,2.80
2018-08-22T07:26:32.298Z,4.83
2018-08-22T07:30:26.652Z,3.10
2018-08-22T07:34:20.928Z,2.87
2018-08-22T07:38:15.018Z,3.70
2018-08-22T07:42:09.095Z,3.60
2018-08-22T07:46:03.143Z,3.40
2018-08-22T07:49:57.591Z,4.20
2018-08-22T07:53:51.630Z,4.43
2018-08-22T07:57:45.741Z,3.90
2018-08-22T08:01:40.018Z,3.67
2018-08-22T08:05:34.216Z,4.07
2018-08-22T08:09:28.120Z,3.30
2018-08-22T08:13:29.520Z,5.60
2018-08-22T08:17:23.726Z,3.37
2018-08-22T08:21:17.787Z,3.30
2018-08-22T08:25:11.853Z,3.33
2018-08-22T08:29:05.981Z,3.10
2018-08-22T08:32:59.995Z,3.53
2018-08-22T08:36:53.998Z,3.10
2018-08-22T08:40:48.048Z,2.93
2018-08-22T08:44:42.300Z,3.10
2018-08-22T08:48:36.864Z,3.40
2018-08-22T08:52:30.867Z,3.23
2018-08-22T08:56:24.854Z,2.93
2018-08-22T09:00:19.006Z,3.50
2018-08-22T09:04:13.195Z,3.30
2018-08-22T09:08:07.269Z,2.97
2018-08-22T09:12:01.680Z,3.27
2018-08-22T09:15:55.734Z,3.30
2018-08-22T09:19:49.938Z,4.80
2018-08-22T09:23:45.990Z,3.50
2018-08-22T09:27:40.435Z,3.23
2018-08-22T09:31:34.489Z,3.30
2018-08-22T09:35:29.186Z,3.57
2018-08-22T09:39:23.169Z,3.12
2018-08-22T09:43:17.201Z,2.87
2018-08-22T09:47:11.704Z,3.55
2018-08-22T09:51:05.957Z,3.33
2018-08-22T09:55:01.615Z,3.62
2018-08-22T09:58:55.720Z,3.65
2018-08-22T10:02:50.025Z,3.67
2018-08-22T10:06:47.815Z,3.13
2018-08-22T10:10:43.667Z,3.92
2018-08-22T10:14:37.814Z,3.98
2018-08-22T10:18:31.902Z,3.60
2018-08-22T10:22:27.369Z,3.42
2018-08-22T10:26:21.628Z,3.73
2018-08-22T10:30:15.791Z,3.10
2018-08-22T10:34:09.859Z,3.95
2018-08-22T10:38:03.935Z,3.80
2018-08-22T10:41:57.895Z,3.90
2018-08-22T10:45:52.541Z,3.67
2018-08-22T10:49:46.680Z,4.40
2018-08-22T10:53:41.659Z,3.95
2018-08-22T10:57:36.622Z,4.40
2018-08-22T11:01:30.769Z,4.40
2018-08-22T11:05:25.395Z,4.42
2018-08-22T11:09:19.482Z,3.58
2018-08-22T11:13:13.777Z,5.30
2018-08-22T11:17:08.118Z,4.22
2018-08-22T11:21:13.347Z,4.30
2018-08-22T11:25:18.823Z,4.15
2018-08-22T11:29:24.289Z,4.90
2018-08-22T11:33:29.903Z,4.40
2018-08-22T11:37:24.053Z,3.70
2018-08-22T11:41:19.133Z,4.47
2018-08-22T11:45:13.126Z,4.40
2018-08-22T11:49:07.153Z,4.55
2018-08-22T11:53:01.235Z,5.12
2018-08-22T11:56:55.268Z,5.42
2018-08-22T12:00:54.061Z,4.00
2018-08-22T12:04:48.427Z,4.10
2018-08-22T12:08:42.640Z,4.90
2018-08-22T12:12:43.894Z,4.83
2018-08-22T12:16:38.398Z,5.00
2018-08-22T12:20:32.561Z,4.50
2018-08-22T12:24:26.549Z,5.00
2018-08-22T12:28:20.926Z,4.97
2018-08-22T12:32:15.398Z,5.03
2018-08-22T12:36:09.385Z,5.30
2018-08-22T12:40:03.620Z,4.70
2018-08-22T12:43:57.681Z,4.67
2018-08-22T12:47:51.785Z,4.70
2018-08-22T12:51:46.119Z,4.50
2018-08-22T12:55:40.418Z,4.20
2018-08-22T12:59:34.613Z,4.40
2018-08-22T13:03:28.578Z,4.60
2018-08-22T13:07:22.678Z,4.70
2018-08-22T13:11:16.661Z,5.20
2018-08-22T13:15:10.949Z,4.20
2018-08-22T13:19:05.043Z,4.75
2018-08-22T13:22:59.086Z,5.25
2018-08-22T13:26:53.120Z,6.22
2018-08-22T13:30:47.235Z,5.22
2018-08-22T13:34:41.290Z,6.27
2018-08-22T13:38:36.112Z,5.78
2018-08-22T13:42:41.296Z,6.58
2018-08-22T13:46:35.411Z,6.70
2018-08-22T13:50:29.565Z,5.97
2018-08-22T13:54:23.767Z,6.67
2018-08-22T13:58:17.905Z,6.00
2018-08-22T14:02:12.004Z,6.53
2018-08-22T14:06:07.075Z,6.65
2018-08-22T14:10:01.205Z,5.85
2018-08-22T14:13:55.390Z,6.75
2018-08-22T14:17:49.998Z,6.22
2018-08-22T14:21:44.036Z,6.10
2018-08-22T14:25:38.143Z,6.03
2018-08-22T14:29:32.216Z,5.45
2018-08-22T14:33:26.360Z,5.60
2018-08-22T14:37:20.324Z,5.87
2018-08-22T14:41:14.395Z,5.78
2018-08-22T14:45:08.755Z,5.97
2018-08-22T14:49:02.946Z,6.17
2018-08-22T14:52:57.081Z,5.17
2018-08-22T14:56:51.104Z,5.87
2018-08-22T15:00:46.291Z,5.47
2018-08-22T15:04:40.291Z,6.22
2018-08-22T15:08:34.326Z,5.53
2018-08-22T15:12:28.588Z,4.72
2018-08-22T15:16:22.811Z,5.10
2018-08-22T15:20:16.880Z,6.30
2018-08-22T15:24:10.953Z,6.30
2018-08-22T15:28:05.203Z,6.10
2018-08-22T15:31:59.309Z,6.22
2018-08-22T15:35:53.295Z,6.20
2018-08-22T15:39:47.761Z,5.85
2018-08-22T15:43:41.856Z,4.97
2018-08-22T15:47:35.938Z,5.25
2018-08-22T15:51:32.126Z,7.09
2018-08-22T15:55:26.218Z,7.85
2018-08-22T15:59:20.175Z,6.62
2018-08-22T16:03:14.129Z,8.23
2018-08-22T16:07:08.105Z,9.53
2018-08-22T16:11:06.733Z,8.05
2018-08-22T16:15:00.755Z,10.32
2018-08-22T16:18:54.695Z,10.17
2018-08-22T16:22:48.835Z,9.28
2018-08-22T16:26:43.957Z,9.40
2018-08-22T16:30:38.094Z,10.90
2018-08-22T16:34:36.382Z,11.75
2018-08-22T16:38:30.348Z,11.95
2018-08-22T16:42:29.665Z,11.38
2018-08-22T16:46:24.203Z,9.90
2018-08-22T16:50:18.716Z,10.38
2018-08-22T16:54:12.687Z,10.20
2018-08-22T16:58:06.635Z,11.38
2018-08-22T17:02:00.670Z,9.10
2018-08-22T17:06:06.003Z,9.48
2018-08-22T17:10:00.058Z,9.83
2018-08-22T17:13:54.432Z,9.18
2018-08-22T17:17:48.606Z,9.65
2018-08-22T17:21:42.617Z,9.93
2018-08-22T17:25:36.599Z,8.67
2018-08-22T17:29:30.595Z,8.20
2018-08-22T17:34:02.674Z,7.85
2018-08-22T17:37:58.685Z,8.13
2018-08-22T17:41:52.889Z,8.80
2018-08-22T17:45:46.933Z,7.90
2018-08-22T17:49:41.469Z,10.00
2018-08-22T17:53:37.276Z,8.35
2018-08-22T17:57:31.404Z,10.00
2018-08-22T18:01:26.462Z,8.03
2018-08-22T18:05:21.254Z,10.30
2018-08-22T18:09:15.234Z,9.33
2018-08-22T18:13:14.626Z,11.05
2018-08-22T18:17:08.594Z,11.33
2018-08-22T18:21:02.595Z,10.30
2018-08-22T18:24:57.356Z,9.83
2018-08-22T18:28:51.329Z,11.00
2018-08-22T18:32:45.407Z,10.00
2018-08-22T18:36:39.403Z,11.15
2018-08-22T18:40:33.504Z,10.50
2018-08-22T18:44:27.555Z,11.08
2018-08-22T18:48:21.723Z,10.85
2018-08-22T18:52:15.824Z,11.10
2018-08-22T18:56:16.175Z,11.43
2018-08-22T19:00:10.202Z,12.23
2018-08-22T19:04:04.227Z,11.73
2018-08-22T19:08:11.218Z,12.80
2018-08-22T19:12:05.224Z,9.97
2018-08-22T19:16:02.461Z,12.97
2018-08-22T19:19:56.438Z,10.33
2018-08-22T19:23:55.957Z,9.23
2018-08-22T19:27:49.984Z,11.53
2018-08-22T19:31:48.348Z,11.87
2018-08-22T19:35:42.872Z,10.45
2018-08-22T19:39:37.502Z,11.90
2018-08-22T19:43:31.649Z,11.70
2018-08-22T19:47:25.777Z,10.50
2018-08-22T19:51:19.996Z,12.33
2018-08-22T19:55:13.996Z,11.13
2018-08-22T19:59:08.187Z,12.30
2018-08-22T20:03:02.318Z,11.73
2018-08-22T20:06:56.283Z,13.10
2018-08-22T20:10:50.341Z,11.73
2018-08-22T20:14:50.769Z,11.37
2018-08-22T20:18:47.314Z,11.10
2018-08-22T20:22:42.759Z,13.03
2018-08-22T20:26:38.946Z,12.53
2018-08-22T20:30:33.020Z,12.90
2018-08-22T20:34:27.057Z,11.97
2018-08-22T20:38:21.040Z,13.07
2018-08-22T20:42:16.148Z,13.60
2018-08-22T20:46:10.140Z,13.90
2018-08-22T20:50:04.211Z,13.63
2018-08-22T20:54:02.428Z,14.53
2018-08-22T20:57:56.662Z,14.70
2018-08-22T21:01:54.888Z,14.63
2018-08-22T21:05:48.972Z,14.37
2018-08-22T21:09:43.277Z,15.93
2018-08-22T21:13:39.092Z,15.70
2018-08-22T21:17:33.323Z,15.50
2018-08-22T21:21:27.312Z,16.20
2018-08-22T21:25:21.881Z,15.30
2018-08-22T21:29:15.931Z,16.57
2018-08-22T21:33:10.489Z,16.97
2018-08-22T21:37:14.471Z,16.27
2018-08-22T21:41:09.886Z,16.93
2018-08-22T21:45:04.157Z,14.83
2018-08-22T21:49:02.726Z,16.80
2018-08-22T21:53:00.554Z,16.05
2018-08-22T21:56:54.821Z,17.97
2018-08-22T22:00:48.906Z,14.87
2018-08-22T22:04:43.100Z,19.10
2018-08-22T22:08:41.692Z,16.77
2018-08-22T22:12:36.673Z,18.10
2018-08-22T22:16:31.486Z,19.10
2018-08-22T22:20:25.481Z,18.63
2018-08-22T22:24:19.462Z,19.43
2018-08-22T22:28:13.616Z,19.20
2018-08-22T22:32:07.791Z,17.60
2018-08-22T22:36:01.735Z,18.73
2018-08-22T22:39:55.713Z,17.97
2018-08-22T22:43:49.642Z,18.83
2018-08-22T22:47:44.036Z,18.50
2018-08-22T22:51:38.047Z,18.37
2018-08-22T22:55:32.158Z,19.03
2018-08-22T22:59:26.213Z,19.30
2018-08-22T23:03:20.315Z,20.27
2018-08-22T23:07:21.456Z,19.63
2018-08-22T23:11:15.425Z,20.90
2018-08-22T23:15:12.257Z,21.57
2018-08-22T23:19:06.259Z,20.67
2018-08-22T23:23:00.329Z,26.23
2018-08-22T23:26:54.342Z,24.93
2018-08-22T23:30:48.408Z,23.47
2018-08-22T23:34:42.515Z,25.83
2018-08-22T23:38:38.082Z,25.37
2018-08-22T23:42:32.062Z,25.20
2018-08-22T23:46:26.108Z,23.83
2018-08-22T23:50:20.284Z,26.43
2018-08-22T23:54:14.256Z,26.97
2018-08-22T23:58:08.277Z,26.73
